createdAt,value
2019-04-07T00:02:08.589Z,20.91
2019-04-07T00:04:34.278Z,20.92
2019-04-07T00:07:01.292Z,20.90
2019-04-07T00:09:27.643Z,20.88
2019-04-07T00:11:53.614Z,20.90
2019-04-07T00:14:19.744Z,20.87
2019-04-07T00:16:46.115Z,20.88
2019-04-07T00:19:12.480Z,20.89
2019-04-07T00:21:38.866Z,20.87
2019-04-07T00:24:05.710Z,20.86
2019-04-07T00:26:31.474Z,20.86
2019-04-07T00:28:57.883Z,20.85
2019-04-07T00:31:24.240Z,20.84
2019-04-07T00:33:50.607Z,20.82
2019-04-07T00:36:16.960Z,20.83
2019-04-07T00:38:43.676Z,20.83
2019-04-07T00:41:09.612Z,20.81
2019-04-07T00:43:36.367Z,20.81
2019-04-07T00:46:02.419Z,20.81
2019-04-07T00:48:28.743Z,20.81
2019-04-07T00:50:55.007Z,20.80
2019-04-07T00:53:21.335Z,20.79
2019-04-07T00:55:47.688Z,20.79
2019-04-07T00:58:14.031Z,20.78
2019-04-07T01:00:40.359Z,20.76
2019-04-07T01:03:07.263Z,20.76
2019-04-07T01:05:36.686Z,20.76
2019-04-07T01:07:59.367Z,20.75
2019-04-07T01:10:26.109Z,20.75
2019-04-07T01:12:52.181Z,20.76
2019-04-07T01:15:18.634Z,20.74
2019-04-07T01:17:44.823Z,20.72
2019-04-07T01:20:11.568Z,20.74
2019-04-07T01:22:37.556Z,20.71
2019-04-07T01:25:04.014Z,20.70
2019-04-07T01:27:30.256Z,20.71
2019-04-07T01:29:56.640Z,20.70
2019-04-07T01:32:23.998Z,20.68
2019-04-07T01:34:49.409Z,20.68
2019-04-07T01:37:16.224Z,20.69
2019-04-07T01:39:41.945Z,20.68
2019-04-07T01:42:08.333Z,20.67
2019-04-07T01:44:35.531Z,20.66
2019-04-07T01:47:01.364Z,20.65
2019-04-07T01:49:27.987Z,20.66
2019-04-07T01:51:53.792Z,20.65
2019-04-07T01:54:20.739Z,20.64
2019-04-07T01:56:46.539Z,20.63
2019-04-07T01:59:12.830Z,20.63
2019-04-07T02:01:39.180Z,20.61
2019-04-07T02:04:06.029Z,20.60
2019-04-07T02:06:32.075Z,20.61
2019-04-07T02:08:58.383Z,20.61
2019-04-07T02:11:24.779Z,20.58
2019-04-07T02:13:51.622Z,20.60
2019-04-07T02:16:18.189Z,20.60
2019-04-07T02:18:44.235Z,20.56
2019-04-07T02:21:09.967Z,20.56
2019-04-07T02:23:36.307Z,20.56
2019-04-07T02:26:02.628Z,20.56
2019-04-07T02:28:29.178Z,20.54
2019-04-07T02:30:56.148Z,20.55
2019-04-07T02:33:22.602Z,20.54
2019-04-07T02:35:48.855Z,20.55
2019-04-07T02:38:16.320Z,20.54
2019-04-07T02:40:40.800Z,20.51
2019-04-07T02:43:07.167Z,20.52
2019-04-07T02:45:34.403Z,20.52
2019-04-07T02:48:01.052Z,20.53
2019-04-07T02:50:26.280Z,20.51
2019-04-07T02:52:52.925Z,20.49
2019-04-07T02:55:19.568Z,20.47
2019-04-07T02:57:45.381Z,20.49
2019-04-07T03:00:12.033Z,20.48
2019-04-07T03:02:39.273Z,20.46
2019-04-07T03:05:05.307Z,20.48
2019-04-07T03:07:30.891Z,20.45
2019-04-07T03:09:57.260Z,20.45
2019-04-07T03:12:23.623Z,20.43
2019-04-07T03:14:50.681Z,20.43
2019-04-07T03:17:16.372Z,20.44
2019-04-07T03:19:42.799Z,20.43
2019-04-07T03:22:09.089Z,20.42
2019-04-07T03:24:35.495Z,20.43
2019-04-07T03:27:02.574Z,20.42
2019-04-07T03:29:28.211Z,20.40
2019-04-07T03:31:56.783Z,20.39
2019-04-07T03:34:23.352Z,20.40
2019-04-07T03:37:12.803Z,20.39
2019-04-07T03:39:13.672Z,20.40
2019-04-07T03:41:40.150Z,20.40
2019-04-07T03:44:07.590Z,20.40
2019-04-07T03:46:32.733Z,20.40
2019-04-07T03:48:59.078Z,20.38
2019-04-07T03:51:25.687Z,20.40
2019-04-07T03:53:52.103Z,20.40
2019-04-07T03:56:18.196Z,20.40
2019-04-07T03:58:44.588Z,20.41
2019-04-07T04:01:10.970Z,20.42
2019-04-07T04:03:37.414Z,20.42
2019-04-07T04:06:04.614Z,20.43
2019-04-07T04:08:31.414Z,20.43
2019-04-07T04:10:56.752Z,20.43
2019-04-07T04:13:23.817Z,20.43
2019-04-07T04:15:50.058Z,20.43
2019-04-07T04:18:16.218Z,20.45
2019-04-07T04:20:41.963Z,20.45
2019-04-07T04:23:08.980Z,20.47
2019-04-07T04:25:34.680Z,20.49
2019-04-07T04:28:01.219Z,20.47
2019-04-07T04:30:27.757Z,20.48
2019-04-07T04:32:54.237Z,20.50
2019-04-07T04:35:20.258Z,20.49
2019-04-07T04:37:51.406Z,20.50
2019-04-07T04:40:14.070Z,20.49
2019-04-07T04:42:39.385Z,20.54
2019-04-07T04:45:06.200Z,20.53
2019-04-07T04:47:32.789Z,20.53
2019-04-07T04:49:58.575Z,20.54
2019-04-07T04:52:24.901Z,20.52
2019-04-07T04:54:51.825Z,20.53
2019-04-07T04:57:17.813Z,20.55
2019-04-07T04:59:44.282Z,20.57
2019-04-07T05:02:10.740Z,20.55
2019-04-07T05:04:37.412Z,20.58
2019-04-07T05:07:03.414Z,20.60
2019-04-07T05:09:40.000Z,20.58
2019-04-07T05:11:56.504Z,20.60
2019-04-07T05:14:22.158Z,20.60
2019-04-07T05:16:49.132Z,20.59
2019-04-07T05:19:14.834Z,20.61
2019-04-07T05:21:41.548Z,20.63
2019-04-07T05:24:07.539Z,20.63
2019-04-07T05:26:34.501Z,20.64
2019-04-07T05:29:00.457Z,20.63
2019-04-07T05:31:26.579Z,20.65
2019-04-07T05:33:52.948Z,20.64
2019-04-07T05:36:19.274Z,20.66
2019-04-07T05:38:45.613Z,20.66
2019-04-07T05:41:11.991Z,20.67
2019-04-07T05:43:38.348Z,20.67
2019-04-07T05:46:07.085Z,20.68
2019-04-07T05:48:31.680Z,20.69
2019-04-07T05:50:59.953Z,20.71
2019-04-07T05:53:24.405Z,20.70
2019-04-07T05:55:53.815Z,20.74
2019-04-07T05:58:16.878Z,20.73
2019-04-07T06:00:45.794Z,20.73
2019-04-07T06:03:09.560Z,20.74
2019-04-07T06:05:36.779Z,20.76
2019-04-07T06:08:18.800Z,20.77
2019-04-07T06:10:29.729Z,20.75
2019-04-07T06:12:55.375Z,20.77
2019-04-07T06:15:22.299Z,20.79
2019-04-07T06:17:47.731Z,20.82
2019-04-07T06:20:15.814Z,20.81
2019-04-07T06:22:40.507Z,20.85
2019-04-07T06:25:07.030Z,20.81
2019-04-07T06:27:33.625Z,20.85
2019-04-07T06:30:00.109Z,20.85
2019-04-07T06:32:26.673Z,20.84
2019-04-07T06:34:53.025Z,20.87
2019-04-07T06:37:18.749Z,20.87
2019-04-07T06:39:47.025Z,20.89
2019-04-07T06:42:11.991Z,20.89
2019-04-07T06:44:38.445Z,20.88
2019-04-07T06:47:04.670Z,20.89
2019-04-07T06:49:30.463Z,20.89
2019-04-07T06:52:00.647Z,20.91
2019-04-07T06:54:23.230Z,20.94
2019-04-07T06:56:50.014Z,20.95
2019-04-07T06:59:16.488Z,20.94
2019-04-07T07:01:42.776Z,20.95
2019-04-07T07:04:11.134Z,20.96
2019-04-07T07:06:34.858Z,20.97
2019-04-07T07:09:01.972Z,21.00
2019-04-07T07:11:30.871Z,20.99
2019-04-07T07:13:54.112Z,21.02
2019-04-07T07:16:20.663Z,21.03
2019-04-07T07:18:47.085Z,21.05
2019-04-07T07:21:13.338Z,21.07
2019-04-07T07:23:39.671Z,21.08
2019-04-07T07:26:06.032Z,21.10
2019-04-07T07:28:32.604Z,21.10
2019-04-07T07:30:58.880Z,21.13
2019-04-07T07:33:24.831Z,21.12
2019-04-07T07:35:51.192Z,21.14
2019-04-07T07:38:18.076Z,21.15
2019-04-07T07:40:46.452Z,21.17
2019-04-07T07:43:10.338Z,21.19
2019-04-07T07:45:37.181Z,21.19
2019-04-07T07:48:03.168Z,21.22
2019-04-07T07:50:29.981Z,21.23
2019-04-07T07:52:56.179Z,21.24
2019-04-07T07:55:22.340Z,21.25
2019-04-07T07:57:49.161Z,21.26
2019-04-07T08:00:15.555Z,21.28
2019-04-07T08:02:41.223Z,21.28
2019-04-07T08:05:09.320Z,21.29
2019-04-07T08:07:34.723Z,21.29
2019-04-07T08:10:00.589Z,21.32
2019-04-07T08:12:27.185Z,21.34
2019-04-07T08:14:55.584Z,21.35
2019-04-07T08:17:19.396Z,21.33
2019-04-07T08:19:46.625Z,21.35
2019-04-07T08:22:12.093Z,21.37
2019-04-07T08:24:38.422Z,21.37
2019-04-07T08:27:05.177Z,21.37
2019-04-07T08:29:31.138Z,21.41
2019-04-07T08:31:57.675Z,21.41
2019-04-07T08:34:24.337Z,21.46
2019-04-07T08:36:50.248Z,21.46
2019-04-07T08:39:22.989Z,21.46
2019-04-07T08:41:43.531Z,21.45
2019-04-07T08:44:09.472Z,21.42
2019-04-07T08:46:40.061Z,21.44
2019-04-07T08:49:01.982Z,21.44
2019-04-07T08:51:30.801Z,21.49
2019-04-07T08:53:54.829Z,21.46
2019-04-07T08:56:24.818Z,21.49
2019-04-07T08:58:47.815Z,21.47
2019-04-07T09:01:14.280Z,21.49
2019-04-07T09:03:44.426Z,21.51
2019-04-07T09:06:07.249Z,21.53
2019-04-07T09:08:34.801Z,21.53
2019-04-07T09:10:59.392Z,21.54
2019-04-07T09:13:25.579Z,21.57
2019-04-07T09:15:52.241Z,21.56
2019-04-07T09:18:19.132Z,21.56
2019-04-07T09:20:48.079Z,21.60
2019-04-07T09:23:11.329Z,21.63
2019-04-07T09:25:39.999Z,21.65
2019-04-07T09:28:03.920Z,21.67
2019-04-07T09:30:30.783Z,21.69
2019-04-07T09:32:56.835Z,21.69
2019-04-07T09:35:25.715Z,21.73
2019-04-07T09:37:49.581Z,21.75
2019-04-07T09:40:17.288Z,21.75
2019-04-07T09:42:42.163Z,21.74
2019-04-07T09:45:10.917Z,21.76
2019-04-07T09:47:34.888Z,21.81
2019-04-07T09:50:01.679Z,21.80
2019-04-07T09:52:28.289Z,21.82
2019-04-07T09:54:55.566Z,21.84
2019-04-07T09:57:21.138Z,21.84
2019-04-07T09:59:50.744Z,21.84
2019-04-07T10:02:13.250Z,21.85
2019-04-07T10:04:45.002Z,21.90
2019-04-07T10:07:12.175Z,21.90
2019-04-07T10:09:38.516Z,21.91
2019-04-07T10:12:04.736Z,21.93
2019-04-07T10:14:30.748Z,21.94
2019-04-07T10:16:57.367Z,21.94
2019-04-07T10:19:23.059Z,21.94
2019-04-07T10:21:49.756Z,21.94
2019-04-07T10:24:16.917Z,21.95
2019-04-07T10:26:42.952Z,21.98
2019-04-07T10:29:08.432Z,21.99
2019-04-07T10:31:34.993Z,21.98
2019-04-07T10:34:01.775Z,21.97
2019-04-07T10:36:28.092Z,21.98
2019-04-07T10:38:54.120Z,22.00
2019-04-07T10:41:20.742Z,22.01
2019-04-07T10:43:46.745Z,22.02
2019-04-07T10:46:13.517Z,22.01
2019-04-07T10:48:40.028Z,22.03
2019-04-07T10:51:05.635Z,22.02
2019-04-07T10:53:33.141Z,22.04
2019-04-07T10:55:58.300Z,22.05
2019-04-07T10:58:24.825Z,22.07
2019-04-07T11:00:51.069Z,22.08
2019-04-07T11:03:17.469Z,22.06
2019-04-07T11:05:43.776Z,22.10
2019-04-07T11:08:10.561Z,22.05
2019-04-07T11:10:39.173Z,22.09
2019-04-07T11:13:03.124Z,22.06
2019-04-07T11:15:29.256Z,22.09
2019-04-07T11:17:56.016Z,22.11
2019-04-07T11:20:22.129Z,22.10
2019-04-07T11:22:48.952Z,22.09
2019-04-07T11:25:15.058Z,22.10
2019-04-07T11:27:42.085Z,22.10
2019-04-07T11:30:08.132Z,22.09
2019-04-07T11:32:34.790Z,22.06
2019-04-07T11:35:00.421Z,22.06
2019-04-07T11:37:27.472Z,22.06
2019-04-07T11:39:53.441Z,22.03
2019-04-07T11:42:19.736Z,22.02
2019-04-07T11:44:46.742Z,22.03
2019-04-07T11:47:12.207Z,22.03
2019-04-07T11:49:41.421Z,22.03
2019-04-07T11:52:04.853Z,22.04
2019-04-07T11:54:31.225Z,22.04
2019-04-07T11:56:57.556Z,22.07
2019-04-07T11:59:23.967Z,22.02
2019-04-07T12:01:51.008Z,22.03
2019-04-07T12:04:17.343Z,22.08
2019-04-07T12:06:46.572Z,22.04
2019-04-07T12:09:09.259Z,22.01
2019-04-07T12:11:36.293Z,22.04
2019-04-07T12:14:02.239Z,22.03
2019-04-07T12:16:29.711Z,22.03
2019-04-07T12:18:55.492Z,22.02
2019-04-07T12:21:23.228Z,22.03
2019-04-07T12:23:52.048Z,22.02
2019-04-07T12:26:14.101Z,22.00
2019-04-07T12:28:42.943Z,21.98
2019-04-07T12:31:10.211Z,21.97
2019-04-07T12:33:38.535Z,22.00
2019-04-07T12:36:02.042Z,22.02
2019-04-07T12:38:28.313Z,22.01
2019-04-07T12:41:09.959Z,22.02
2019-04-07T12:43:21.790Z,22.00
2019-04-07T12:45:48.150Z,21.99
2019-04-07T12:48:14.516Z,21.97
2019-04-07T12:50:42.482Z,21.98
2019-04-07T12:53:07.193Z,21.97
2019-04-07T12:55:33.368Z,22.00
2019-04-07T12:57:59.896Z,21.96
2019-04-07T13:00:26.102Z,21.96
2019-04-07T13:02:54.360Z,21.96
2019-04-07T13:05:19.707Z,21.92
2019-04-07T13:07:48.433Z,21.92
2019-04-07T13:10:11.947Z,21.93
2019-04-07T13:12:38.757Z,21.93
2019-04-07T13:15:05.474Z,21.93
2019-04-07T13:17:34.591Z,21.91
2019-04-07T13:19:58.659Z,21.90
2019-04-07T13:22:23.945Z,21.88
2019-04-07T13:24:50.978Z,21.94
2019-04-07T13:27:16.915Z,21.91
2019-04-07T13:29:43.347Z,21.89
2019-04-07T13:32:09.526Z,21.87
2019-04-07T13:34:35.959Z,21.88
2019-04-07T13:37:02.415Z,21.86
2019-04-07T13:39:29.198Z,21.87
2019-04-07T13:41:56.339Z,21.86
2019-04-07T13:44:21.826Z,21.85
2019-04-07T13:46:47.977Z,21.88
2019-04-07T13:49:14.962Z,21.86
2019-04-07T13:51:43.886Z,21.85
2019-04-07T13:54:07.989Z,21.84
2019-04-07T13:56:34.266Z,21.84
2019-04-07T13:58:59.974Z,21.84
2019-04-07T14:01:26.772Z,21.83
2019-04-07T14:03:57.095Z,21.83
2019-04-07T14:06:19.452Z,21.83
2019-04-07T14:08:45.958Z,21.79
2019-04-07T14:11:12.251Z,21.78
2019-04-07T14:13:41.411Z,21.80
2019-04-07T14:16:07.435Z,21.78
2019-04-07T14:18:33.502Z,21.78
2019-04-07T14:21:00.468Z,21.77
2019-04-07T14:23:26.290Z,21.77
2019-04-07T14:25:53.760Z,21.75
2019-04-07T14:28:19.091Z,21.75
2019-04-07T14:30:45.588Z,21.75
2019-04-07T14:33:12.238Z,21.75
2019-04-07T14:35:38.956Z,21.74
2019-04-07T14:38:04.835Z,21.72
2019-04-07T14:40:31.080Z,21.70
2019-04-07T14:42:58.201Z,21.71
2019-04-07T14:45:24.313Z,21.70
2019-04-07T14:47:50.314Z,21.70
2019-04-07T14:50:16.706Z,21.69
2019-04-07T14:52:43.096Z,21.69
2019-04-07T14:55:09.483Z,21.68
2019-04-07T14:57:39.068Z,21.67
2019-04-07T15:00:02.606Z,21.66
2019-04-07T15:02:29.114Z,21.66
2019-04-07T15:04:55.061Z,21.67
2019-04-07T15:07:21.598Z,21.65
2019-04-07T15:09:48.082Z,21.64
2019-04-07T15:12:20.262Z,21.65
2019-04-07T15:14:41.572Z,21.63
2019-04-07T15:17:07.788Z,21.62
2019-04-07T15:19:34.143Z,21.62
2019-04-07T15:22:02.371Z,21.62
2019-04-07T15:24:26.332Z,21.61
2019-04-07T15:26:53.054Z,21.60
2019-04-07T15:29:19.891Z,21.58
2019-04-07T15:31:48.957Z,21.57
2019-04-07T15:34:14.141Z,21.56
2019-04-07T15:36:39.453Z,21.56
2019-04-07T15:39:05.236Z,21.58
2019-04-07T15:41:31.419Z,21.55
2019-04-07T15:43:58.493Z,21.55
2019-04-07T15:46:24.238Z,21.54
2019-04-07T15:48:54.286Z,21.53
2019-04-07T15:51:17.591Z,21.53
2019-04-07T15:53:48.456Z,21.51
2019-04-07T15:56:13.104Z,21.51
2019-04-07T15:58:36.171Z,21.51
2019-04-07T16:01:05.910Z,21.51
2019-04-07T16:03:29.812Z,21.48
2019-04-07T16:05:55.575Z,21.46
2019-04-07T16:08:21.697Z,21.48
2019-04-07T16:10:48.133Z,21.42
2019-04-07T16:13:15.244Z,21.44
2019-04-07T16:15:44.034Z,21.44
2019-04-07T16:18:08.598Z,21.43
2019-04-07T16:20:39.495Z,21.41
2019-04-07T16:23:00.059Z,21.41
2019-04-07T16:25:28.157Z,21.38
2019-04-07T16:27:52.795Z,21.37
2019-04-07T16:30:20.292Z,21.40
2019-04-07T16:32:45.655Z,21.38
2019-04-07T16:35:15.589Z,21.37
2019-04-07T16:37:39.125Z,21.35
2019-04-07T16:40:08.707Z,21.36
2019-04-07T16:42:31.420Z,21.35
2019-04-07T16:44:58.274Z,21.34
2019-04-07T16:47:26.287Z,21.33
2019-04-07T16:49:50.670Z,21.32
2019-04-07T16:52:17.012Z,21.32
2019-04-07T16:54:44.430Z,21.30
2019-04-07T16:57:10.525Z,21.30
2019-04-07T16:59:36.740Z,21.29
2019-04-07T17:02:02.701Z,21.28
2019-04-07T17:04:29.971Z,21.28
2019-04-07T17:07:03.124Z,21.28
2019-04-07T17:09:24.725Z,21.26
2019-04-07T17:11:48.282Z,21.25
2019-04-07T17:14:14.650Z,21.25
2019-04-07T17:16:44.157Z,21.23
2019-04-07T17:19:07.631Z,21.22
2019-04-07T17:21:33.836Z,21.21
2019-04-07T17:24:00.273Z,21.22
2019-04-07T17:26:27.511Z,21.18
2019-04-07T17:28:55.589Z,21.20
2019-04-07T17:31:19.492Z,21.19
2019-04-07T17:33:46.909Z,21.18
2019-04-07T17:36:15.357Z,21.17
2019-04-07T17:38:38.724Z,21.17
2019-04-07T17:41:07.878Z,21.16
2019-04-07T17:43:40.726Z,21.14
2019-04-07T17:45:58.326Z,21.13
2019-04-07T17:48:24.432Z,21.14
2019-04-07T17:50:50.658Z,21.13
2019-04-07T17:53:17.443Z,21.14
2019-04-07T17:55:44.180Z,21.13
2019-04-07T17:58:10.207Z,21.12
2019-04-07T18:00:37.352Z,21.11
2019-04-07T18:03:07.577Z,21.10
2019-04-07T18:05:29.458Z,21.08
2019-04-07T18:07:56.502Z,21.07
2019-04-07T18:10:23.756Z,21.07
2019-04-07T18:12:49.888Z,21.05
2019-04-07T18:15:17.496Z,21.05
2019-04-07T18:17:44.463Z,21.06
2019-04-07T18:20:09.022Z,21.03
2019-04-07T18:22:34.735Z,21.03
2019-04-07T18:25:02.795Z,21.02
2019-04-07T18:27:26.948Z,21.02
2019-04-07T18:29:53.895Z,21.02
2019-04-07T18:32:20.729Z,21.03
2019-04-07T18:34:46.259Z,20.99
2019-04-07T18:37:12.922Z,20.99
2019-04-07T18:39:39.775Z,20.99
2019-04-07T18:42:10.287Z,20.99
2019-04-07T18:44:35.311Z,20.98
2019-04-07T18:46:58.509Z,20.97
2019-04-07T18:49:24.701Z,20.96
2019-04-07T18:51:51.820Z,20.95
2019-04-07T18:54:17.445Z,20.94
2019-04-07T18:56:44.073Z,20.90
2019-04-07T18:59:10.259Z,20.91
2019-04-07T19:01:39.449Z,20.91
2019-04-07T19:04:03.008Z,20.90
2019-04-07T19:06:30.118Z,20.91
2019-04-07T19:08:58.896Z,20.90
2019-04-07T19:11:26.129Z,20.89
2019-04-07T19:13:59.424Z,20.89
2019-04-07T19:16:18.987Z,20.89
2019-04-07T19:18:42.358Z,20.86
2019-04-07T19:21:11.019Z,20.85
2019-04-07T19:23:34.409Z,20.86
2019-04-07T19:26:00.961Z,20.85
2019-04-07T19:28:26.754Z,20.85
2019-04-07T19:30:53.090Z,20.84
2019-04-07T19:33:19.474Z,20.82
2019-04-07T19:35:45.844Z,20.83
2019-04-07T19:38:12.327Z,20.82
2019-04-07T19:40:38.767Z,20.81
2019-04-07T19:43:05.848Z,20.83
2019-04-07T19:45:31.456Z,20.90
2019-04-07T19:47:58.179Z,20.90
2019-04-07T19:50:24.157Z,20.95
2019-04-07T19:52:50.758Z,21.01
2019-04-07T19:55:19.870Z,21.01
2019-04-07T19:57:43.530Z,21.03
2019-04-07T20:00:16.166Z,21.06
2019-04-07T20:02:38.934Z,21.06
2019-04-07T20:05:02.709Z,21.10
2019-04-07T20:07:30.515Z,21.10
2019-04-07T20:09:55.350Z,21.12
2019-04-07T20:12:21.808Z,21.13
2019-04-07T20:14:55.504Z,21.13
2019-04-07T20:17:19.016Z,21.15
2019-04-07T20:19:41.412Z,21.16
2019-04-07T20:22:07.072Z,21.16
2019-04-07T20:24:36.665Z,21.17
2019-04-07T20:26:59.721Z,21.17
2019-04-07T20:29:26.048Z,21.18
2019-04-07T20:31:53.477Z,21.19
2019-04-07T20:34:18.761Z,21.19
2019-04-07T20:36:45.089Z,21.22
2019-04-07T20:39:11.521Z,21.19
2019-04-07T20:41:38.002Z,21.21
2019-04-07T20:44:04.144Z,21.22
2019-04-07T20:46:30.448Z,21.22
2019-04-07T20:48:56.823Z,21.21
2019-04-07T20:51:23.164Z,21.23
2019-04-07T20:53:49.528Z,21.22
2019-04-07T20:56:16.561Z,21.22
2019-04-07T20:58:49.557Z,21.24
2019-04-07T21:01:11.256Z,21.24
2019-04-07T21:03:35.065Z,21.23
2019-04-07T21:06:02.092Z,21.22
2019-04-07T21:08:30.245Z,21.22
2019-04-07T21:10:54.224Z,21.23
2019-04-07T21:13:20.556Z,21.23
2019-04-07T21:15:47.730Z,21.25
2019-04-07T21:18:13.217Z,21.25
2019-04-07T21:20:39.549Z,21.22
2019-04-07T21:23:05.908Z,21.23
2019-04-07T21:25:32.246Z,21.23
2019-04-07T21:27:58.599Z,21.23
2019-04-07T21:30:24.979Z,21.23
2019-04-07T21:32:52.644Z,21.23
2019-04-07T21:35:17.630Z,21.23
2019-04-07T21:37:46.804Z,21.24
2019-04-07T21:40:10.423Z,21.23
2019-04-07T21:42:36.759Z,21.27
2019-04-07T21:45:05.743Z,21.26
2019-04-07T21:47:29.419Z,21.25
2019-04-07T21:49:55.787Z,21.25
2019-04-07T21:52:23.345Z,21.25
2019-04-07T21:54:48.437Z,21.26
2019-04-07T21:57:15.140Z,21.26
2019-04-07T21:59:41.131Z,21.25
2019-04-07T22:02:11.433Z,21.24
2019-04-07T22:04:34.055Z,21.26
2019-04-07T22:07:00.238Z,21.25
2019-04-07T22:09:26.832Z,21.23
2019-04-07T22:11:54.592Z,21.22
2019-04-07T22:14:19.377Z,21.22
2019-04-07T22:16:45.705Z,21.23
2019-04-07T22:19:14.865Z,21.25
2019-04-07T22:21:38.426Z,21.22
2019-04-07T22:24:04.964Z,21.23
2019-04-07T22:26:31.680Z,21.25
2019-04-07T22:29:01.265Z,21.25
2019-04-07T22:31:24.819Z,21.24
2019-04-07T22:33:50.920Z,21.21
2019-04-07T22:36:16.735Z,21.22
2019-04-07T22:38:43.238Z,21.23
2019-04-07T22:41:10.068Z,21.22
2019-04-07T22:43:35.583Z,21.21
2019-04-07T22:46:09.780Z,21.22
2019-04-07T22:48:29.440Z,21.22
2019-04-07T22:50:54.787Z,21.20
2019-04-07T22:53:22.431Z,21.21
2019-04-07T22:55:48.530Z,21.20
2019-04-07T22:58:13.971Z,21.21
2019-04-07T23:00:40.363Z,21.20
2019-04-07T23:03:06.675Z,21.21
2019-04-07T23:05:33.753Z,21.22
2019-04-07T23:07:59.882Z,21.21
2019-04-07T23:10:25.716Z,21.23
2019-04-07T23:12:52.193Z,21.20
2019-04-07T23:15:18.711Z,21.20
2019-04-07T23:17:44.841Z,21.19
2019-04-07T23:20:11.195Z,21.20
2019-04-07T23:22:38.298Z,21.20
2019-04-07T23:25:04.093Z,21.20
2019-04-07T23:27:30.435Z,21.21
2019-04-07T23:29:56.986Z,21.20
2019-04-07T23:32:23.995Z,21.20
2019-04-07T23:34:49.895Z,21.20
2019-04-07T23:37:16.550Z,21.21
2019-04-07T23:39:42.151Z,21.19
2019-04-07T23:42:09.090Z,21.18
2019-04-07T23:44:35.248Z,21.18
2019-04-07T23:47:01.212Z,21.20
2019-04-07T23:49:27.955Z,21.18
2019-04-07T23:51:53.977Z,21.18
2019-04-07T23:54:20.315Z,21.18
2019-04-07T23:56:46.647Z,21.18
2019-04-07T23:59:13.032Z,21.17
